Terminal Aerodrome Forecast
Issued by NWS Albany, NY

Home | Current Version | Previous Version | Text Only | Print | Product List | Glossary On
Versions: 1 2 3 4 5 6 7 8 9 10 11 12 13 14 15 16 17 18 19 20 21 22 23 24 25 26
000
FTUS41 KALY 171700
TAFPOU
TAF
KPOU 171738Z 1718/1818 20003KT P6SM SCT060
      TEMPO 1718/1722 BKN060
     FM172300 VRB03KT P6SM SKC
     FM180700 00000KT 5SM BR FEW002 SCT100
      TEMPO 1807/1811 2SM BR BKN002
     FM181300 31004KT P6SM BKN120=

USA.gov is the U.S. government's official web portal to all federal, state and local government web resources and services.